sensor_id;sensor_type;location;lat;lon;timestamp;pressure;altitude;pressure_sealevel;temperature;humidity
65557;BME280;52200;53.490;14.376;2023-06-22T00:01:22;101771.91;;;16.51;93.11
65557;BME280;52200;53.490;14.376;2023-06-22T00:03:48;101772.09;;;16.46;93.17
65557;BME280;52200;53.490;14.376;2023-06-22T00:06:14;101779.94;;;16.41;93.04
65557;BME280;52200;53.490;14.376;2023-06-22T00:08:40;101774.06;;;16.38;92.77
65557;BME280;52200;53.490;14.376;2023-06-22T00:11:05;101771.88;;;16.27;93.12
65557;BME280;52200;53.490;14.376;2023-06-22T00:13:31;101772.06;;;16.21;93.81
65557;BME280;52200;53.490;14.376;2023-06-22T00:15:56;101771.97;;;16.24;93.71
65557;BME280;52200;53.490;14.376;2023-06-22T00:18:21;101778.19;;;16.17;93.81
65557;BME280;52200;53.490;14.376;2023-06-22T00:20:47;101781.78;;;16.11;94.50
65557;BME280;52200;53.490;14.376;2023-06-22T00:23:12;101776.84;;;16.06;94.61
65557;BME280;52200;53.490;14.376;2023-06-22T00:25:41;101784.34;;;16.13;93.87
65557;BME280;52200;53.490;14.376;2023-06-22T00:28:07;101786.03;;;16.12;93.27
65557;BME280;52200;53.490;14.376;2023-06-22T00:30:33;101793.00;;;16.08;93.44
65557;BME280;52200;53.490;14.376;2023-06-22T00:33:00;101791.44;;;16.04;93.47
65557;BME280;52200;53.490;14.376;2023-06-22T00:35:26;101786.38;;;16.01;93.48
65557;BME280;52200;53.490;14.376;2023-06-22T00:37:59;101786.50;;;15.98;93.48
65557;BME280;52200;53.490;14.376;2023-06-22T00:40:31;101785.88;;;15.91;93.32
65557;BME280;52200;53.490;14.376;2023-06-22T00:42:57;101775.13;;;15.78;94.10
65557;BME280;52200;53.490;14.376;2023-06-22T00:45:23;101779.50;;;15.75;93.64
65557;BME280;52200;53.490;14.376;2023-06-22T00:47:53;101782.41;;;15.64;93.96
65557;BME280;52200;53.490;14.376;2023-06-22T00:50:21;101789.38;;;15.59;94.68
65557;BME280;52200;53.490;14.376;2023-06-22T00:52:57;101798.56;;;15.66;94.15
65557;BME280;52200;53.490;14.376;2023-06-22T00:55:24;101797.06;;;15.59;93.65
65557;BME280;52200;53.490;14.376;2023-06-22T00:57:51;101792.13;;;15.53;93.56
65557;BME280;52200;53.490;14.376;2023-06-22T01:00:22;101801.59;;;15.22;94.57
65557;BME280;52200;53.490;14.376;2023-06-22T01:02:50;101809.97;;;15.27;94.72
65557;BME280;52200;53.490;14.376;2023-06-22T01:05:21;101816.63;;;15.33;94.80
65557;BME280;52200;53.490;14.376;2023-06-22T01:10:29;101812.56;;;15.26;94.90
65557;BME280;52200;53.490;14.376;2023-06-22T01:13:16;101815.88;;;15.29;93.97
65557;BME280;52200;53.490;14.376;2023-06-22T01:16:10;101821.91;;;15.27;94.30
65557;BME280;52200;53.490;14.376;2023-06-22T01:18:40;101816.13;;;15.20;94.00
65557;BME280;52200;53.490;14.376;2023-06-22T01:21:09;101818.78;;;15.17;94.10
65557;BME280;52200;53.490;14.376;2023-06-22T01:28:57;101819.06;;;14.76;95.59
65557;BME280;52200;53.490;14.376;2023-06-22T01:31:26;101819.22;;;14.70;96.17
65557;BME280;52200;53.490;14.376;2023-06-22T01:33:54;101820.53;;;14.83;95.66
65557;BME280;52200;53.490;14.376;2023-06-22T01:36:22;101821.28;;;14.89;94.86
65557;BME280;52200;53.490;14.376;2023-06-22T01:38:49;101831.69;;;14.82;94.76
65557;BME280;52200;53.490;14.376;2023-06-22T01:41:16;101829.97;;;14.83;94.88
65557;BME280;52200;53.490;14.376;2023-06-22T01:43:43;101822.22;;;14.85;94.41
65557;BME280;52200;53.490;14.376;2023-06-22T01:46:10;101824.91;;;14.80;93.98
65557;BME280;52200;53.490;14.376;2023-06-22T01:48:36;101825.28;;;14.66;94.45
65557;BME280;52200;53.490;14.376;2023-06-22T01:51:03;101831.31;;;14.62;94.82
65557;BME280;52200;53.490;14.376;2023-06-22T01:53:29;101839.22;;;14.52;94.69
65557;BME280;52200;53.490;14.376;2023-06-22T01:55:56;101833.16;;;14.57;94.95
65557;BME280;52200;53.490;14.376;2023-06-22T01:58:24;101845.16;;;14.55;94.80
65557;BME280;52200;53.490;14.376;2023-06-22T02:00:58;101843.41;;;14.57;94.73
65557;BME280;52200;53.490;14.376;2023-06-22T02:03:32;101843.31;;;14.60;94.47
65557;BME280;52200;53.490;14.376;2023-06-22T02:06:19;101833.13;;;14.58;94.45
65557;BME280;52200;53.490;14.376;2023-06-22T02:08:49;101843.63;;;14.47;94.82
65557;BME280;52200;53.490;14.376;2023-06-22T02:11:18;101844.63;;;14.42;95.04
65557;BME280;52200;53.490;14.376;2023-06-22T02:13:45;101843.94;;;14.35;94.78
65557;BME280;52200;53.490;14.376;2023-06-22T02:16:12;101853.16;;;14.41;94.65
65557;BME280;52200;53.490;14.376;2023-06-22T02:18:38;101859.19;;;14.38;94.78
65557;BME280;52200;53.490;14.376;2023-06-22T02:21:05;101861.72;;;14.40;94.17
65557;BME280;52200;53.490;14.376;2023-06-22T02:23:31;101848.94;;;14.40;94.02
65557;BME280;52200;53.490;14.376;2023-06-22T02:26:02;101846.47;;;14.35;94.39
65557;BME280;52200;53.490;14.376;2023-06-22T02:28:28;101847.34;;;14.35;93.75
65557;BME280;52200;53.490;14.376;2023-06-22T02:30:54;101841.41;;;14.33;93.99
65557;BME280;52200;53.490;14.376;2023-06-22T02:33:19;101850.00;;;14.31;93.91
65557;BME280;52200;53.490;14.376;2023-06-22T02:35:45;101855.97;;;14.30;93.65
65557;BME280;52200;53.490;14.376;2023-06-22T02:38:14;101858.69;;;14.24;93.69
65557;BME280;52200;53.490;14.376;2023-06-22T02:40:39;101862.97;;;14.22;94.26
65557;BME280;52200;53.490;14.376;2023-06-22T02:43:06;101857.88;;;14.22;94.06
65557;BME280;52200;53.490;14.376;2023-06-22T02:45:31;101861.44;;;14.14;94.59
65557;BME280;52200;53.490;14.376;2023-06-22T02:47:57;101862.06;;;14.26;93.86
65557;BME280;52200;53.490;14.376;2023-06-22T02:50:22;101868.75;;;14.30;93.70
65557;BME280;52200;53.490;14.376;2023-06-22T02:52:48;101859.25;;;14.35;93.06
65557;BME280;52200;53.490;14.376;2023-06-22T02:55:13;101856.50;;;14.43;92.73
65557;BME280;52200;53.490;14.376;2023-06-22T02:57:39;101863.31;;;14.44;92.66
65557;BME280;52200;53.490;14.376;2023-06-22T03:00:10;101859.00;;;14.46;92.69
65557;BME280;52200;53.490;14.376;2023-06-22T03:02:46;101860.66;;;14.48;92.11
65557;BME280;52200;53.490;14.376;2023-06-22T03:05:13;101859.88;;;14.45;92.34
65557;BME280;52200;53.490;14.376;2023-06-22T03:07:40;101865.16;;;14.39;92.35
65557;BME280;52200;53.490;14.376;2023-06-22T03:10:08;101864.41;;;14.33;93.01
65557;BME280;52200;53.490;14.376;2023-06-22T03:12:34;101876.84;;;14.47;92.55
65557;BME280;52200;53.490;14.376;2023-06-22T03:15:00;101877.88;;;14.40;93.18
65557;BME280;52200;53.490;14.376;2023-06-22T03:17:25;101877.25;;;14.68;92.90
65557;BME280;52200;53.490;14.376;2023-06-22T03:19:50;101882.22;;;14.74;92.32
65557;BME280;52200;53.490;14.376;2023-06-22T03:22:16;101877.41;;;14.95;91.67
65557;BME280;52200;53.490;14.376;2023-06-22T03:24:41;101881.34;;;15.07;91.29
65557;BME280;52200;53.490;14.376;2023-06-22T03:27:07;101879.38;;;15.17;90.71
65557;BME280;52200;53.490;14.376;2023-06-22T03:29:32;101889.38;;;15.26;90.25
65557;BME280;52200;53.490;14.376;2023-06-22T03:31:57;101889.28;;;15.29;90.12
65557;BME280;52200;53.490;14.376;2023-06-22T03:34:23;101885.75;;;15.33;89.86
65557;BME280;52200;53.490;14.376;2023-06-22T03:36:48;101891.56;;;15.40;89.66
65557;BME280;52200;53.490;14.376;2023-06-22T03:39:13;101895.75;;;15.42;89.73
65557;BME280;52200;53.490;14.376;2023-06-22T03:41:39;101899.94;;;15.45;89.68
65557;BME280;52200;53.490;14.376;2023-06-22T03:44:04;101894.75;;;15.46;89.21
65557;BME280;52200;53.490;14.376;2023-06-22T03:46:30;101893.88;;;15.47;89.46
65557;BME280;52200;53.490;14.376;2023-06-22T03:48:55;101892.25;;;15.45;89.37
65557;BME280;52200;53.490;14.376;2023-06-22T03:51:21;101893.72;;;15.54;89.71
65557;BME280;52200;53.490;14.376;2023-06-22T03:53:46;101902.78;;;15.64;89.74
65557;BME280;52200;53.490;14.376;2023-06-22T03:56:13;101905.91;;;15.75;89.87
65557;BME280;52200;53.490;14.376;2023-06-22T03:58:45;101895.84;;;15.69;90.20
65557;BME280;52200;53.490;14.376;2023-06-22T04:01:10;101897.88;;;15.26;92.34
65557;BME280;52200;53.490;14.376;2023-06-22T04:03:37;101905.47;;;15.61;92.45
65557;BME280;52200;53.490;14.376;2023-06-22T04:06:02;101902.09;;;15.90;91.84
65557;BME280;52200;53.490;14.376;2023-06-22T04:08:28;101890.28;;;16.13;91.60
65557;BME280;52200;53.490;14.376;2023-06-22T04:10:53;101899.88;;;16.35;91.13
65557;BME280;52200;53.490;14.376;2023-06-22T04:13:19;101904.41;;;16.52;90.85
65557;BME280;52200;53.490;14.376;2023-06-22T04:15:44;101902.34;;;16.63;90.56
65557;BME280;52200;53.490;14.376;2023-06-22T04:18:10;101911.09;;;16.83;90.35
65557;BME280;52200;53.490;14.376;2023-06-22T04:20:35;101915.63;;;17.01;89.88
65557;BME280;52200;53.490;14.376;2023-06-22T04:23:01;101913.28;;;17.20;89.25
65557;BME280;52200;53.490;14.376;2023-06-22T04:25:27;101918.34;;;17.46;87.93
65557;BME280;52200;53.490;14.376;2023-06-22T04:27:52;101915.34;;;17.80;88.88
65557;BME280;52200;53.490;14.376;2023-06-22T04:30:18;101907.66;;;18.47;88.93
65557;BME280;52200;53.490;14.376;2023-06-22T04:32:44;101903.09;;;18.95;88.24
65557;BME280;52200;53.490;14.376;2023-06-22T04:35:10;101903.72;;;19.21;86.93
65557;BME280;52200;53.490;14.376;2023-06-22T04:37:36;101900.31;;;19.39;85.20
65557;BME280;52200;53.490;14.376;2023-06-22T04:40:02;101902.44;;;19.68;84.15
65557;BME280;52200;53.490;14.376;2023-06-22T04:42:29;101905.22;;;20.01;83.64
65557;BME280;52200;53.490;14.376;2023-06-22T04:44:55;101898.09;;;20.06;82.57
65557;BME280;52200;53.490;14.376;2023-06-22T04:47:21;101898.75;;;19.92;82.75
65557;BME280;52200;53.490;14.376;2023-06-22T04:49:46;101895.53;;;19.87;82.51
65557;BME280;52200;53.490;14.376;2023-06-22T04:52:13;101883.34;;;19.91;82.72
65557;BME280;52200;53.490;14.376;2023-06-22T04:54:39;101886.53;;;19.96;83.05
65557;BME280;52200;53.490;14.376;2023-06-22T04:57:13;101885.59;;;20.16;82.00
65557;BME280;52200;53.490;14.376;2023-06-22T04:59:40;101886.47;;;19.97;82.09
65557;BME280;52200;53.490;14.376;2023-06-22T05:02:07;101885.41;;;20.02;83.01
65557;BME280;52200;53.490;14.376;2023-06-22T05:04:33;101876.59;;;20.06;81.46
65557;BME280;52200;53.490;14.376;2023-06-22T05:07:00;101884.38;;;20.23;82.16
65557;BME280;52200;53.490;14.376;2023-06-22T05:09:26;101883.81;;;20.34;82.00
65557;BME280;52200;53.490;14.376;2023-06-22T05:11:51;101875.94;;;20.37;82.25
65557;BME280;52200;53.490;14.376;2023-06-22T05:14:17;101877.06;;;20.32;82.33
65557;BME280;52200;53.490;14.376;2023-06-22T05:16:44;101884.50;;;20.20;82.46
65557;BME280;52200;53.490;14.376;2023-06-22T05:19:10;101884.28;;;20.42;82.30
65557;BME280;52200;53.490;14.376;2023-06-22T05:21:36;101881.47;;;20.47;81.40
65557;BME280;52200;53.490;14.376;2023-06-22T05:24:01;101885.41;;;20.37;82.74
65557;BME280;52200;53.490;14.376;2023-06-22T05:26:29;101883.44;;;20.59;82.21
65557;BME280;52200;53.490;14.376;2023-06-22T05:28:55;101889.22;;;20.65;82.26
65557;BME280;52200;53.490;14.376;2023-06-22T05:31:21;101881.56;;;20.63;81.52
65557;BME280;52200;53.490;14.376;2023-06-22T05:33:47;101875.13;;;20.70;80.89
65557;BME280;52200;53.490;14.376;2023-06-22T05:36:13;101875.53;;;20.62;81.62
65557;BME280;52200;53.490;14.376;2023-06-22T05:38:40;101878.50;;;20.72;80.84
65557;BME280;52200;53.490;14.376;2023-06-22T05:41:06;101884.63;;;20.70;80.34
65557;BME280;52200;53.490;14.376;2023-06-22T05:43:32;101882.25;;;21.00;79.15
65557;BME280;52200;53.490;14.376;2023-06-22T05:45:57;101878.88;;;21.48;77.44
65557;BME280;52200;53.490;14.376;2023-06-22T05:48:23;101880.22;;;21.71;76.12
65557;BME280;52200;53.490;14.376;2023-06-22T05:50:49;101887.41;;;21.82;77.57
65557;BME280;52200;53.490;14.376;2023-06-22T05:53:14;101890.31;;;22.22;75.88
65557;BME280;52200;53.490;14.376;2023-06-22T05:55:40;101882.56;;;22.81;73.24
65557;BME280;52200;53.490;14.376;2023-06-22T05:58:06;101884.53;;;23.48;72.56
65557;BME280;52200;53.490;14.376;2023-06-22T06:00:32;101898.69;;;24.25;70.69
65557;BME280;52200;53.490;14.376;2023-06-22T06:02:57;101893.72;;;25.49;66.10
65557;BME280;52200;53.490;14.376;2023-06-22T06:05:28;101887.53;;;27.69;61.28
65557;BME280;52200;53.490;14.376;2023-06-22T06:07:53;101894.59;;;29.54;55.21
65557;BME280;52200;53.490;14.376;2023-06-22T06:10:19;101886.38;;;30.92;51.82
65557;BME280;52200;53.490;14.376;2023-06-22T06:12:44;101889.81;;;31.74;49.21
65557;BME280;52200;53.490;14.376;2023-06-22T06:15:10;101888.66;;;31.95;48.46
65557;BME280;52200;53.490;14.376;2023-06-22T06:17:35;101889.94;;;32.17;47.93
65557;BME280;52200;53.490;14.376;2023-06-22T06:20:01;101895.25;;;31.99;47.51
65557;BME280;52200;53.490;14.376;2023-06-22T06:22:28;101890.63;;;31.57;47.85
65557;BME280;52200;53.490;14.376;2023-06-22T06:24:53;101894.31;;;32.26;47.66
65557;BME280;52200;53.490;14.376;2023-06-22T06:27:19;101910.28;;;33.27;46.51
65557;BME280;52200;53.490;14.376;2023-06-22T06:29:44;101905.16;;;33.17;45.19
65557;BME280;52200;53.490;14.376;2023-06-22T06:32:13;101898.63;;;33.54;45.54
65557;BME280;52200;53.490;14.376;2023-06-22T06:34:39;101901.72;;;33.25;44.82
65557;BME280;52200;53.490;14.376;2023-06-22T06:37:05;101896.06;;;31.73;45.70
65557;BME280;52200;53.490;14.376;2023-06-22T06:39:31;101897.16;;;31.34;46.74
65557;BME280;52200;53.490;14.376;2023-06-22T06:41:56;101889.22;;;31.08;46.90
65557;BME280;52200;53.490;14.376;2023-06-22T06:44:22;101886.84;;;29.63;49.44
65557;BME280;52200;53.490;14.376;2023-06-22T06:46:47;101891.59;;;27.62;53.49
65557;BME280;52200;53.490;14.376;2023-06-22T06:49:13;101892.06;;;26.66;56.91
65557;BME280;52200;53.490;14.376;2023-06-22T06:51:38;101888.94;;;25.91;59.06
65557;BME280;52200;53.490;14.376;2023-06-22T06:54:04;101881.56;;;25.50;59.45
65557;BME280;52200;53.490;14.376;2023-06-22T06:56:29;101878.81;;;25.27;60.75
65557;BME280;52200;53.490;14.376;2023-06-22T06:58:55;101889.06;;;24.78;59.31
65557;BME280;52200;53.490;14.376;2023-06-22T07:01:20;101903.19;;;24.49;58.12
65557;BME280;52200;53.490;14.376;2023-06-22T07:03:46;101899.41;;;24.14;60.58
65557;BME280;52200;53.490;14.376;2023-06-22T07:06:12;101899.06;;;23.93;64.09
65557;BME280;52200;53.490;14.376;2023-06-22T07:08:38;101903.47;;;23.91;61.82
65557;BME280;52200;53.490;14.376;2023-06-22T07:11:04;101902.84;;;23.87;61.16
65557;BME280;52200;53.490;14.376;2023-06-22T07:13:30;101911.63;;;23.99;61.15
65557;BME280;52200;53.490;14.376;2023-06-22T07:15:55;101894.31;;;24.25;60.63
65557;BME280;52200;53.490;14.376;2023-06-22T07:18:21;101887.56;;;24.23;58.73
65557;BME280;52200;53.490;14.376;2023-06-22T07:20:46;101897.47;;;24.30;60.05
65557;BME280;52200;53.490;14.376;2023-06-22T07:23:12;101890.50;;;24.44;62.32
65557;BME280;52200;53.490;14.376;2023-06-22T07:25:38;101895.19;;;24.39;64.17
65557;BME280;52200;53.490;14.376;2023-06-22T07:28:06;101895.06;;;24.40;61.03
65557;BME280;52200;53.490;14.376;2023-06-22T07:30:33;101890.28;;;24.60;61.50
65557;BME280;52200;53.490;14.376;2023-06-22T07:32:59;101896.03;;;24.52;61.24
65557;BME280;52200;53.490;14.376;2023-06-22T07:35:29;101896.97;;;24.64;59.12
65557;BME280;52200;53.490;14.376;2023-06-22T07:37:54;101901.53;;;24.60;61.55
65557;BME280;52200;53.490;14.376;2023-06-22T07:40:20;101898.63;;;24.39;61.22
65557;BME280;52200;53.490;14.376;2023-06-22T07:42:45;101889.19;;;23.98;63.18
65557;BME280;52200;53.490;14.376;2023-06-22T07:45:13;101888.50;;;24.22;58.38
65557;BME280;52200;53.490;14.376;2023-06-22T07:47:39;101889.50;;;24.72;58.09
65557;BME280;52200;53.490;14.376;2023-06-22T07:50:05;101882.50;;;24.99;58.12
65557;BME280;52200;53.490;14.376;2023-06-22T07:52:31;101889.03;;;25.17;56.65
65557;BME280;52200;53.490;14.376;2023-06-22T07:54:57;101885.38;;;25.20;55.30
65557;BME280;52200;53.490;14.376;2023-06-22T07:57:22;101881.50;;;25.38;54.37
65557;BME280;52200;53.490;14.376;2023-06-22T07:59:47;101881.03;;;25.07;54.29
65557;BME280;52200;53.490;14.376;2023-06-22T08:02:13;101873.94;;;25.09;53.82
65557;BME280;52200;53.490;14.376;2023-06-22T08:04:39;101884.50;;;25.32;54.92
65557;BME280;52200;53.490;14.376;2023-06-22T08:07:05;101876.84;;;25.55;55.23
65557;BME280;52200;53.490;14.376;2023-06-22T08:09:31;101878.22;;;25.72;53.82
65557;BME280;52200;53.490;14.376;2023-06-22T08:11:58;101866.56;;;25.89;53.54
65557;BME280;52200;53.490;14.376;2023-06-22T08:14:25;101867.25;;;26.15;55.02
65557;BME280;52200;53.490;14.376;2023-06-22T08:16:50;101876.28;;;26.45;51.71
65557;BME280;52200;53.490;14.376;2023-06-22T08:19:16;101878.56;;;26.38;51.13
65557;BME280;52200;53.490;14.376;2023-06-22T08:21:42;101877.28;;;26.78;51.30
65557;BME280;52200;53.490;14.376;2023-06-22T08:24:07;101875.84;;;26.74;52.60
65557;BME280;52200;53.490;14.376;2023-06-22T08:26:33;101878.00;;;27.47;53.13
65557;BME280;52200;53.490;14.376;2023-06-22T08:29:02;101869.47;;;27.33;50.52
65557;BME280;52200;53.490;14.376;2023-06-22T08:31:28;101877.53;;;27.74;53.92
65557;BME280;52200;53.490;14.376;2023-06-22T08:33:53;101876.22;;;28.01;48.68
65557;BME280;52200;53.490;14.376;2023-06-22T08:36:19;101875.97;;;28.46;49.60
65557;BME280;52200;53.490;14.376;2023-06-22T08:38:44;101881.47;;;28.53;47.29
65557;BME280;52200;53.490;14.376;2023-06-22T08:41:10;101886.97;;;28.50;52.05
65557;BME280;52200;53.490;14.376;2023-06-22T08:43:36;101879.53;;;28.45;47.85
65557;BME280;52200;53.490;14.376;2023-06-22T08:46:01;101875.28;;;28.23;48.11
65557;BME280;52200;53.490;14.376;2023-06-22T08:48:28;101877.28;;;27.56;49.85
65557;BME280;52200;53.490;14.376;2023-06-22T08:50:53;101872.13;;;27.22;49.97
65557;BME280;52200;53.490;14.376;2023-06-22T08:53:19;101874.88;;;27.09;50.90
65557;BME280;52200;53.490;14.376;2023-06-22T08:55:45;101878.88;;;26.34;56.99
65557;BME280;52200;53.490;14.376;2023-06-22T08:58:10;101883.97;;;26.24;55.08
65557;BME280;52200;53.490;14.376;2023-06-22T09:00:36;101882.09;;;26.37;55.13
65557;BME280;52200;53.490;14.376;2023-06-22T09:03:02;101880.44;;;26.48;54.96
65557;BME280;52200;53.490;14.376;2023-06-22T09:05:28;101882.88;;;25.91;54.28
65557;BME280;52200;53.490;14.376;2023-06-22T09:07:55;101872.47;;;25.91;55.94
65557;BME280;52200;53.490;14.376;2023-06-22T09:10:21;101870.19;;;25.86;57.24
65557;BME280;52200;53.490;14.376;2023-06-22T09:12:46;101869.47;;;26.09;55.72
65557;BME280;52200;53.490;14.376;2023-06-22T09:15:12;101872.75;;;26.46;53.41
65557;BME280;52200;53.490;14.376;2023-06-22T09:17:37;101875.22;;;26.25;56.09
65557;BME280;52200;53.490;14.376;2023-06-22T09:20:03;101866.44;;;26.26;54.63
65557;BME280;52200;53.490;14.376;2023-06-22T09:22:31;101871.94;;;26.68;55.58
65557;BME280;52200;53.490;14.376;2023-06-22T09:24:58;101863.84;;;26.37;54.34
65557;BME280;52200;53.490;14.376;2023-06-22T09:27:24;101865.75;;;26.58;53.11
65557;BME280;52200;53.490;14.376;2023-06-22T09:29:50;101861.38;;;26.59;50.54
65557;BME280;52200;53.490;14.376;2023-06-22T09:32:15;101874.88;;;26.64;53.90
65557;BME280;52200;53.490;14.376;2023-06-22T09:34:41;101869.78;;;26.74;53.82
65557;BME280;52200;53.490;14.376;2023-06-22T09:37:06;101876.44;;;27.00;50.37
65557;BME280;52200;53.490;14.376;2023-06-22T09:39:32;101866.22;;;27.09;51.68
65557;BME280;52200;53.490;14.376;2023-06-22T09:41:59;101865.41;;;26.97;50.15
65557;BME280;52200;53.490;14.376;2023-06-22T09:44:25;101847.50;;;26.47;50.16
65557;BME280;52200;53.490;14.376;2023-06-22T09:46:51;101857.44;;;26.64;51.03
65557;BME280;52200;53.490;14.376;2023-06-22T09:49:16;101855.31;;;27.03;51.23
65557;BME280;52200;53.490;14.376;2023-06-22T09:51:42;101852.84;;;27.46;50.71
65557;BME280;52200;53.490;14.376;2023-06-22T09:54:07;101852.25;;;27.54;53.27
65557;BME280;52200;53.490;14.376;2023-06-22T09:56:32;101845.22;;;27.54;49.22
65557;BME280;52200;53.490;14.376;2023-06-22T09:58:58;101842.41;;;27.34;50.92
65557;BME280;52200;53.490;14.376;2023-06-22T10:01:23;101848.22;;;27.06;52.05
65557;BME280;52200;53.490;14.376;2023-06-22T10:03:51;101840.75;;;27.01;51.05
65557;BME280;52200;53.490;14.376;2023-06-22T10:06:19;101850.47;;;27.10;51.37
65557;BME280;52200;53.490;14.376;2023-06-22T10:08:45;101844.66;;;26.84;50.74
65557;BME280;52200;53.490;14.376;2023-06-22T10:11:10;101852.28;;;26.76;52.40
65557;BME280;52200;53.490;14.376;2023-06-22T10:13:36;101839.69;;;26.69;50.73
65557;BME280;52200;53.490;14.376;2023-06-22T10:16:01;101839.34;;;26.97;52.46
65557;BME280;52200;53.490;14.376;2023-06-22T10:18:27;101837.19;;;27.02;51.05
65557;BME280;52200;53.490;14.376;2023-06-22T10:20:52;101833.16;;;26.98;54.83
65557;BME280;52200;53.490;14.376;2023-06-22T10:23:20;101828.66;;;27.32;53.38
65557;BME280;52200;53.490;14.376;2023-06-22T10:25:46;101826.97;;;27.54;51.11
65557;BME280;52200;53.490;14.376;2023-06-22T10:28:12;101832.81;;;27.35;50.91
65557;BME280;52200;53.490;14.376;2023-06-22T10:30:40;101829.13;;;27.49;50.32
65557;BME280;52200;53.490;14.376;2023-06-22T10:33:10;101834.84;;;27.43;51.92
65557;BME280;52200;53.490;14.376;2023-06-22T10:35:36;101830.06;;;27.48;51.94
65557;BME280;52200;53.490;14.376;2023-06-22T10:38:03;101834.22;;;27.72;50.13
65557;BME280;52200;53.490;14.376;2023-06-22T10:40:29;101829.72;;;27.74;53.35
65557;BME280;52200;53.490;14.376;2023-06-22T10:42:54;101831.31;;;27.86;50.17
65557;BME280;52200;53.490;14.376;2023-06-22T10:45:20;101823.59;;;27.85;50.00
65557;BME280;52200;53.490;14.376;2023-06-22T10:47:45;101831.81;;;28.01;50.46
65557;BME280;52200;53.490;14.376;2023-06-22T10:50:11;101823.34;;;27.66;49.53
65557;BME280;52200;53.490;14.376;2023-06-22T10:52:37;101827.41;;;27.80;50.45
65557;BME280;52200;53.490;14.376;2023-06-22T10:55:02;101828.63;;;27.97;49.54
65557;BME280;52200;53.490;14.376;2023-06-22T10:57:29;101818.13;;;28.09;49.62
65557;BME280;52200;53.490;14.376;2023-06-22T10:59:54;101812.66;;;27.91;49.19
65557;BME280;52200;53.490;14.376;2023-06-22T11:02:19;101815.69;;;28.17;48.88
65557;BME280;52200;53.490;14.376;2023-06-22T11:04:45;101809.19;;;28.11;49.49
65557;BME280;52200;53.490;14.376;2023-06-22T11:07:11;101805.88;;;27.67;48.82
65557;BME280;52200;53.490;14.376;2023-06-22T11:09:36;101804.22;;;27.87;50.58
65557;BME280;52200;53.490;14.376;2023-06-22T11:12:03;101806.56;;;27.90;49.18
65557;BME280;52200;53.490;14.376;2023-06-22T11:14:29;101806.84;;;28.08;49.21
65557;BME280;52200;53.490;14.376;2023-06-22T11:16:54;101795.69;;;28.06;50.60
65557;BME280;52200;53.490;14.376;2023-06-22T11:19:21;101805.44;;;27.83;49.32
65557;BME280;52200;53.490;14.376;2023-06-22T11:21:46;101796.19;;;27.79;49.39
65557;BME280;52200;53.490;14.376;2023-06-22T11:24:12;101793.00;;;27.75;48.46
65557;BME280;52200;53.490;14.376;2023-06-22T11:26:37;101798.72;;;27.90;50.05
65557;BME280;52200;53.490;14.376;2023-06-22T11:29:03;101792.84;;;27.98;49.74
65557;BME280;52200;53.490;14.376;2023-06-22T11:31:33;101793.22;;;28.05;48.76
65557;BME280;52200;53.490;14.376;2023-06-22T11:34:00;101787.75;;;28.18;47.78
65557;BME280;52200;53.490;14.376;2023-06-22T11:36:26;101787.84;;;28.37;47.93
65557;BME280;52200;53.490;14.376;2023-06-22T11:38:52;101783.03;;;28.83;47.36
65557;BME280;52200;53.490;14.376;2023-06-22T11:41:17;101780.28;;;28.94;47.62
65557;BME280;52200;53.490;14.376;2023-06-22T11:43:43;101774.28;;;28.63;47.06
65557;BME280;52200;53.490;14.376;2023-06-22T11:46:08;101770.91;;;28.82;51.08
65557;BME280;52200;53.490;14.376;2023-06-22T11:48:33;101766.53;;;29.12;48.12
65557;BME280;52200;53.490;14.376;2023-06-22T11:50:59;101761.19;;;29.43;47.43
65557;BME280;52200;53.490;14.376;2023-06-22T11:53:26;101760.19;;;29.44;47.23
65557;BME280;52200;53.490;14.376;2023-06-22T11:55:52;101755.94;;;29.14;47.21
65557;BME280;52200;53.490;14.376;2023-06-22T11:58:19;101760.59;;;29.20;46.36
65557;BME280;52200;53.490;14.376;2023-06-22T12:00:44;101759.59;;;29.70;46.31
65557;BME280;52200;53.490;14.376;2023-06-22T12:03:10;101748.94;;;29.81;46.63
65557;BME280;52200;53.490;14.376;2023-06-22T12:05:36;101748.88;;;29.53;44.29
65557;BME280;52200;53.490;14.376;2023-06-22T12:08:02;101754.66;;;29.57;45.76
65557;BME280;52200;53.490;14.376;2023-06-22T12:10:27;101753.00;;;29.17;46.68
65557;BME280;52200;53.490;14.376;2023-06-22T12:12:56;101749.09;;;28.62;47.48
65557;BME280;52200;53.490;14.376;2023-06-22T12:15:22;101751.38;;;28.86;48.62
65557;BME280;52200;53.490;14.376;2023-06-22T12:17:48;101753.72;;;29.19;49.52
65557;BME280;52200;53.490;14.376;2023-06-22T12:20:13;101749.19;;;29.40;46.58
65557;BME280;52200;53.490;14.376;2023-06-22T12:22:40;101754.34;;;29.70;47.03
65557;BME280;52200;53.490;14.376;2023-06-22T12:25:06;101754.03;;;29.93;45.86
65557;BME280;52200;53.490;14.376;2023-06-22T12:27:32;101753.06;;;29.94;46.25
65557;BME280;52200;53.490;14.376;2023-06-22T12:29:57;101747.94;;;29.25;47.76
65557;BME280;52200;53.490;14.376;2023-06-22T12:32:23;101746.81;;;29.27;47.51
65557;BME280;52200;53.490;14.376;2023-06-22T12:34:48;101749.44;;;29.57;49.82
65557;BME280;52200;53.490;14.376;2023-06-22T12:37:14;101744.22;;;29.37;48.74
65557;BME280;52200;53.490;14.376;2023-06-22T12:39:40;101745.19;;;28.87;49.61
65557;BME280;52200;53.490;14.376;2023-06-22T12:42:06;101747.66;;;29.38;47.54
65557;BME280;52200;53.490;14.376;2023-06-22T12:44:34;101746.81;;;29.47;48.06